sensor_id;sensor_type;location;lat;lon;timestamp;pressure;altitude;pressure_sealevel;temperature;humidity
83185;BME280;73080;48.768;11.528;2023-12-28T00:01:15;97247.34;;;2.84;80.18
83185;BME280;73080;48.768;11.528;2023-12-28T00:03:43;97261.97;;;2.92;80.06
83185;BME280;73080;48.768;11.528;2023-12-28T00:06:08;97260.84;;;2.80;80.03
83185;BME280;73080;48.768;11.528;2023-12-28T00:08:33;97260.66;;;2.81;80.56
83185;BME280;73080;48.768;11.528;2023-12-28T00:10:59;97265.75;;;2.68;80.73
83185;BME280;73080;48.768;11.528;2023-12-28T00:13:24;97259.06;;;2.59;80.35
83185;BME280;73080;48.768;11.528;2023-12-28T00:15:49;97258.84;;;2.39;81.97
83185;BME280;73080;48.768;11.528;2023-12-28T00:18:15;97263.75;;;2.48;81.28
83185;BME280;73080;48.768;11.528;2023-12-28T00:20:43;97260.44;;;2.55;80.73
83185;BME280;73080;48.768;11.528;2023-12-28T00:23:09;97251.53;;;2.64;80.71
83185;BME280;73080;48.768;11.528;2023-12-28T00:25:34;97250.06;;;2.55;80.38
83185;BME280;73080;48.768;11.528;2023-12-28T00:28:00;97252.72;;;2.61;80.07
83185;BME280;73080;48.768;11.528;2023-12-28T00:30:28;97253.16;;;2.65;80.86
83185;BME280;73080;48.768;11.528;2023-12-28T00:32:53;97243.91;;;2.56;81.31
83185;BME280;73080;48.768;11.528;2023-12-28T00:35:18;97253.00;;;2.52;80.83
83185;BME280;73080;48.768;11.528;2023-12-28T00:37:44;97255.72;;;2.65;80.48
83185;BME280;73080;48.768;11.528;2023-12-28T00:40:09;97256.25;;;2.75;80.07
83185;BME280;73080;48.768;11.528;2023-12-28T00:42:38;97254.25;;;2.77;80.23
83185;BME280;73080;48.768;11.528;2023-12-28T00:45:04;97261.38;;;2.68;81.25
83185;BME280;73080;48.768;11.528;2023-12-28T00:47:29;97259.44;;;2.77;80.63
83185;BME280;73080;48.768;11.528;2023-12-28T00:49:55;97261.03;;;2.99;79.88
83185;BME280;73080;48.768;11.528;2023-12-28T00:52:20;97257.69;;;3.06;79.23
83185;BME280;73080;48.768;11.528;2023-12-28T00:54:46;97257.56;;;3.14;78.70
83185;BME280;73080;48.768;11.528;2023-12-28T00:57:11;97266.63;;;3.24;78.54
83185;BME280;73080;48.768;11.528;2023-12-28T00:59:36;97270.44;;;3.28;77.94
83185;BME280;73080;48.768;11.528;2023-12-28T01:02:02;97275.88;;;3.34;77.49
83185;BME280;73080;48.768;11.528;2023-12-28T01:04:27;97282.94;;;3.46;76.90
83185;BME280;73080;48.768;11.528;2023-12-28T01:06:53;97280.06;;;3.35;76.81
83185;BME280;73080;48.768;11.528;2023-12-28T01:09:24;97286.50;;;3.39;76.27
83185;BME280;73080;48.768;11.528;2023-12-28T01:11:49;97289.09;;;3.45;76.29
83185;BME280;73080;48.768;11.528;2023-12-28T01:14:21;97280.09;;;3.41;76.57
83185;BME280;73080;48.768;11.528;2023-12-28T01:16:46;97274.63;;;3.29;77.32
83185;BME280;73080;48.768;11.528;2023-12-28T01:19:12;97267.81;;;3.00;77.48
83185;BME280;73080;48.768;11.528;2023-12-28T01:21:43;97276.47;;;2.86;78.09
83185;BME280;73080;48.768;11.528;2023-12-28T01:24:08;97293.25;;;3.12;77.46
83185;BME280;73080;48.768;11.528;2023-12-28T01:26:37;97299.91;;;3.21;76.76
83185;BME280;73080;48.768;11.528;2023-12-28T01:29:02;97291.09;;;2.72;77.36
83185;BME280;73080;48.768;11.528;2023-12-28T01:31:28;97293.69;;;2.94;76.86
83185;BME280;73080;48.768;11.528;2023-12-28T01:33:59;97295.38;;;2.80;78.05
83185;BME280;73080;48.768;11.528;2023-12-28T01:36:25;97298.47;;;2.69;79.04
83185;BME280;73080;48.768;11.528;2023-12-28T01:38:50;97291.41;;;2.63;79.63
83185;BME280;73080;48.768;11.528;2023-12-28T01:41:15;97299.44;;;2.68;80.13
83185;BME280;73080;48.768;11.528;2023-12-28T01:43:42;97292.63;;;2.45;80.13
83185;BME280;73080;48.768;11.528;2023-12-28T01:46:10;97313.31;;;2.82;78.75
83185;BME280;73080;48.768;11.528;2023-12-28T01:48:39;97302.78;;;2.62;78.29
83185;BME280;73080;48.768;11.528;2023-12-28T01:51:08;97296.59;;;2.63;79.17
83185;BME280;73080;48.768;11.528;2023-12-28T01:53:34;97302.91;;;2.75;80.42
83185;BME280;73080;48.768;11.528;2023-12-28T01:55:59;97291.78;;;3.02;80.04
83185;BME280;73080;48.768;11.528;2023-12-28T01:58:26;97296.00;;;2.82;80.18
83185;BME280;73080;48.768;11.528;2023-12-28T02:00:55;97294.38;;;3.02;79.57
83185;BME280;73080;48.768;11.528;2023-12-28T02:03:21;97285.97;;;3.00;78.81
83185;BME280;73080;48.768;11.528;2023-12-28T02:05:47;97284.69;;;2.90;80.12
83185;BME280;73080;48.768;11.528;2023-12-28T02:08:13;97280.78;;;3.00;78.57
83185;BME280;73080;48.768;11.528;2023-12-28T02:10:41;97275.59;;;3.00;78.16
83185;BME280;73080;48.768;11.528;2023-12-28T02:13:07;97282.25;;;3.10;78.47
83185;BME280;73080;48.768;11.528;2023-12-28T02:15:32;97285.41;;;3.26;77.69
83185;BME280;73080;48.768;11.528;2023-12-28T02:18:19;97284.88;;;2.88;77.40
83185;BME280;73080;48.768;11.528;2023-12-28T02:20:47;97291.50;;;2.91;76.38
83185;BME280;73080;48.768;11.528;2023-12-28T02:23:14;97289.50;;;2.93;76.61
83185;BME280;73080;48.768;11.528;2023-12-28T02:25:39;97285.53;;;2.18;78.34
83185;BME280;73080;48.768;11.528;2023-12-28T02:28:05;97293.78;;;2.43;80.10
83185;BME280;73080;48.768;11.528;2023-12-28T02:30:31;97282.38;;;2.37;80.38
83185;BME280;73080;48.768;11.528;2023-12-28T02:36:06;97289.09;;;2.53;80.14
83185;BME280;73080;48.768;11.528;2023-12-28T02:38:30;97295.41;;;2.65;79.14
83185;BME280;73080;48.768;11.528;2023-12-28T02:40:57;97293.44;;;2.31;78.87
83185;BME280;73080;48.768;11.528;2023-12-28T02:43:23;97282.66;;;2.28;80.90
83185;BME280;73080;48.768;11.528;2023-12-28T02:45:49;97270.63;;;2.20;81.78
83185;BME280;73080;48.768;11.528;2023-12-28T02:48:17;97275.56;;;2.00;81.44
83185;BME280;73080;48.768;11.528;2023-12-28T02:50:42;97274.75;;;2.14;81.65
83185;BME280;73080;48.768;11.528;2023-12-28T02:53:08;97278.19;;;2.79;77.44
83185;BME280;73080;48.768;11.528;2023-12-28T02:55:34;97288.44;;;2.66;79.41
83185;BME280;73080;48.768;11.528;2023-12-28T02:57:59;97283.25;;;2.66;79.89
83185;BME280;73080;48.768;11.528;2023-12-28T03:00:25;97291.03;;;2.66;79.09
83185;BME280;73080;48.768;11.528;2023-12-28T03:02:53;97291.47;;;2.48;80.22
83185;BME280;73080;48.768;11.528;2023-12-28T03:05:19;97291.59;;;2.61;80.08
83185;BME280;73080;48.768;11.528;2023-12-28T03:07:44;97297.41;;;2.63;80.00
83185;BME280;73080;48.768;11.528;2023-12-28T03:10:10;97284.25;;;2.86;78.54
83185;BME280;73080;48.768;11.528;2023-12-28T03:12:35;97271.22;;;3.01;76.53
83185;BME280;73080;48.768;11.528;2023-12-28T03:15:00;97277.84;;;3.03;76.15
83185;BME280;73080;48.768;11.528;2023-12-28T03:17:29;97293.94;;;2.78;74.74
83185;BME280;73080;48.768;11.528;2023-12-28T03:19:54;97285.72;;;2.74;77.94
83185;BME280;73080;48.768;11.528;2023-12-28T03:22:22;97287.22;;;2.83;77.78
83185;BME280;73080;48.768;11.528;2023-12-28T03:24:48;97277.34;;;2.72;77.24
83185;BME280;73080;48.768;11.528;2023-12-28T03:27:14;97287.03;;;2.85;76.43
83185;BME280;73080;48.768;11.528;2023-12-28T03:29:41;97288.06;;;2.47;76.99
83185;BME280;73080;48.768;11.528;2023-12-28T03:32:06;97278.66;;;2.61;76.41
83185;BME280;73080;48.768;11.528;2023-12-28T03:34:32;97298.00;;;2.65;76.46
83185;BME280;73080;48.768;11.528;2023-12-28T03:36:57;97304.59;;;2.46;76.05
83185;BME280;73080;48.768;11.528;2023-12-28T03:39:23;97298.06;;;2.51;76.26
83185;BME280;73080;48.768;11.528;2023-12-28T03:41:51;97292.63;;;2.45;76.46
83185;BME280;73080;48.768;11.528;2023-12-28T03:44:17;97303.13;;;2.23;77.67
83185;BME280;73080;48.768;11.528;2023-12-28T03:46:42;97289.91;;;2.17;77.76
83185;BME280;73080;48.768;11.528;2023-12-28T03:49:09;97284.91;;;2.16;76.87
83185;BME280;73080;48.768;11.528;2023-12-28T03:51:34;97272.00;;;1.86;79.03
83185;BME280;73080;48.768;11.528;2023-12-28T03:54:00;97287.06;;;2.12;77.64
83185;BME280;73080;48.768;11.528;2023-12-28T03:56:26;97284.31;;;1.99;78.31
83185;BME280;73080;48.768;11.528;2023-12-28T03:58:52;97283.41;;;2.07;78.00
83185;BME280;73080;48.768;11.528;2023-12-28T04:01:19;97286.25;;;2.27;78.05
83185;BME280;73080;48.768;11.528;2023-12-28T04:03:48;97290.75;;;2.39;76.72
83185;BME280;73080;48.768;11.528;2023-12-28T04:06:14;97282.34;;;2.01;77.86
83185;BME280;73080;48.768;11.528;2023-12-28T04:08:40;97296.13;;;2.38;76.91
83185;BME280;73080;48.768;11.528;2023-12-28T04:11:06;97291.88;;;2.15;78.33
83185;BME280;73080;48.768;11.528;2023-12-28T04:13:35;97300.44;;;2.31;78.29
83185;BME280;73080;48.768;11.528;2023-12-28T04:16:01;97295.91;;;2.54;77.41
83185;BME280;73080;48.768;11.528;2023-12-28T04:18:29;97304.13;;;2.58;76.70
83185;BME280;73080;48.768;11.528;2023-12-28T04:20:55;97309.44;;;2.35;77.63
83185;BME280;73080;48.768;11.528;2023-12-28T04:23:20;97311.31;;;2.41;77.46
83185;BME280;73080;48.768;11.528;2023-12-28T04:25:45;97307.78;;;2.63;77.25
83185;BME280;73080;48.768;11.528;2023-12-28T04:28:11;97315.13;;;2.81;76.08
83185;BME280;73080;48.768;11.528;2023-12-28T04:30:45;97311.47;;;2.54;76.67
83185;BME280;73080;48.768;11.528;2023-12-28T04:33:10;97305.00;;;2.29;77.14
83185;BME280;73080;48.768;11.528;2023-12-28T04:35:36;97303.56;;;2.26;77.28
83185;BME280;73080;48.768;11.528;2023-12-28T04:38:01;97304.47;;;2.04;77.87
83185;BME280;73080;48.768;11.528;2023-12-28T04:40:29;97297.91;;;2.37;77.25
83185;BME280;73080;48.768;11.528;2023-12-28T04:42:55;97303.69;;;2.54;76.59
83185;BME280;73080;48.768;11.528;2023-12-28T04:45:20;97304.69;;;2.38;76.57
83185;BME280;73080;48.768;11.528;2023-12-28T04:47:45;97304.03;;;2.51;75.88
83185;BME280;73080;48.768;11.528;2023-12-28T04:50:13;97297.94;;;2.59;75.89
83185;BME280;73080;48.768;11.528;2023-12-28T04:52:39;97307.09;;;2.76;74.63
83185;BME280;73080;48.768;11.528;2023-12-28T04:55:05;97308.25;;;2.73;74.37
83185;BME280;73080;48.768;11.528;2023-12-28T04:57:30;97300.41;;;2.67;74.46
83185;BME280;73080;48.768;11.528;2023-12-28T04:59:56;97314.16;;;2.82;74.86
83185;BME280;73080;48.768;11.528;2023-12-28T05:02:30;97319.28;;;2.75;75.62
83185;BME280;73080;48.768;11.528;2023-12-28T05:04:59;97313.47;;;2.37;77.70
83185;BME280;73080;48.768;11.528;2023-12-28T05:07:24;97315.50;;;2.42;77.59
83185;BME280;73080;48.768;11.528;2023-12-28T05:09:49;97319.78;;;2.50;76.85
83185;BME280;73080;48.768;11.528;2023-12-28T05:12:14;97317.88;;;2.58;76.50
83185;BME280;73080;48.768;11.528;2023-12-28T05:14:40;97315.81;;;2.90;74.97
83185;BME280;73080;48.768;11.528;2023-12-28T05:17:05;97316.41;;;2.70;74.45
83185;BME280;73080;48.768;11.528;2023-12-28T05:19:30;97308.75;;;2.26;75.63
83185;BME280;73080;48.768;11.528;2023-12-28T05:21:56;97305.59;;;2.31;75.93
83185;BME280;73080;48.768;11.528;2023-12-28T05:24:21;97311.09;;;2.06;76.24
83185;BME280;73080;48.768;11.528;2023-12-28T05:26:49;97310.13;;;1.92;76.08
83185;BME280;73080;48.768;11.528;2023-12-28T05:29:14;97303.06;;;2.01;77.46
83185;BME280;73080;48.768;11.528;2023-12-28T05:31:41;97305.84;;;2.00;76.05
83185;BME280;73080;48.768;11.528;2023-12-28T05:34:06;97300.56;;;2.08;76.28
83185;BME280;73080;48.768;11.528;2023-12-28T05:36:32;97304.50;;;2.18;76.30
83185;BME280;73080;48.768;11.528;2023-12-28T05:38:57;97312.00;;;2.13;75.93
83185;BME280;73080;48.768;11.528;2023-12-28T05:41:23;97315.16;;;2.30;75.83
83185;BME280;73080;48.768;11.528;2023-12-28T05:43:51;97311.13;;;1.91;77.34
83185;BME280;73080;48.768;11.528;2023-12-28T05:46:16;97306.47;;;1.87;78.09
83185;BME280;73080;48.768;11.528;2023-12-28T05:48:42;97320.28;;;1.94;77.25
83185;BME280;73080;48.768;11.528;2023-12-28T05:51:07;97331.13;;;1.98;77.46
83185;BME280;73080;48.768;11.528;2023-12-28T05:53:33;97330.03;;;2.07;77.04
83185;BME280;73080;48.768;11.528;2023-12-28T05:55:58;97335.16;;;1.48;79.20
83185;BME280;73080;48.768;11.528;2023-12-28T05:58:23;97327.88;;;1.14;80.83
83185;BME280;73080;48.768;11.528;2023-12-28T06:00:49;97325.88;;;1.01;81.62
83185;BME280;73080;48.768;11.528;2023-12-28T06:03:14;97317.78;;;1.19;81.91
83185;BME280;73080;48.768;11.528;2023-12-28T06:05:40;97311.63;;;1.57;79.35
83185;BME280;73080;48.768;11.528;2023-12-28T06:08:05;97301.72;;;1.76;77.80
83185;BME280;73080;48.768;11.528;2023-12-28T06:10:31;97301.38;;;1.49;80.13
83185;BME280;73080;48.768;11.528;2023-12-28T06:12:56;97309.38;;;1.69;79.19
83185;BME280;73080;48.768;11.528;2023-12-28T06:15:21;97319.69;;;1.62;77.73
83185;BME280;73080;48.768;11.528;2023-12-28T06:17:47;97326.50;;;1.41;78.64
83185;BME280;73080;48.768;11.528;2023-12-28T06:20:12;97336.75;;;1.34;78.77
83185;BME280;73080;48.768;11.528;2023-12-28T06:22:38;97330.38;;;1.22;80.24
83185;BME280;73080;48.768;11.528;2023-12-28T06:25:04;97334.47;;;1.16;81.13
83185;BME280;73080;48.768;11.528;2023-12-28T06:27:29;97333.47;;;1.55;79.77
83185;BME280;73080;48.768;11.528;2023-12-28T06:29:58;97330.38;;;1.59;79.21
83185;BME280;73080;48.768;11.528;2023-12-28T06:32:24;97328.94;;;1.57;79.15
83185;BME280;73080;48.768;11.528;2023-12-28T06:34:49;97313.34;;;1.65;78.28
83185;BME280;73080;48.768;11.528;2023-12-28T06:37:15;97314.84;;;1.74;78.05
83185;BME280;73080;48.768;11.528;2023-12-28T06:39:46;97306.19;;;1.82;76.75
83185;BME280;73080;48.768;11.528;2023-12-28T06:42:15;97302.69;;;1.89;75.36
83185;BME280;73080;48.768;11.528;2023-12-28T06:44:40;97314.84;;;2.04;75.21
83185;BME280;73080;48.768;11.528;2023-12-28T06:47:06;97306.34;;;2.10;74.60
83185;BME280;73080;48.768;11.528;2023-12-28T06:49:31;97312.56;;;2.30;74.80
83185;BME280;73080;48.768;11.528;2023-12-28T06:51:56;97314.97;;;2.32;75.17
83185;BME280;73080;48.768;11.528;2023-12-28T06:54:22;97322.88;;;1.94;75.27
83185;BME280;73080;48.768;11.528;2023-12-28T06:56:47;97320.81;;;2.04;76.14
83185;BME280;73080;48.768;11.528;2023-12-28T06:59:12;97318.06;;;2.20;75.32
83185;BME280;73080;48.768;11.528;2023-12-28T07:01:41;97329.84;;;2.08;75.60
83185;BME280;73080;48.768;11.528;2023-12-28T07:04:07;97338.94;;;2.04;75.56
83185;BME280;73080;48.768;11.528;2023-12-28T07:06:32;97332.06;;;1.82;76.10
83185;BME280;73080;48.768;11.528;2023-12-28T07:09:00;97336.53;;;1.58;76.65
83185;BME280;73080;48.768;11.528;2023-12-28T07:11:26;97338.38;;;1.35;78.29
83185;BME280;73080;48.768;11.528;2023-12-28T07:13:51;97346.34;;;1.48;78.80
83185;BME280;73080;48.768;11.528;2023-12-28T07:16:17;97347.56;;;1.52;78.29
83185;BME280;73080;48.768;11.528;2023-12-28T07:18:42;97343.91;;;1.47;78.90
83185;BME280;73080;48.768;11.528;2023-12-28T07:21:07;97350.75;;;1.40;79.80
83185;BME280;73080;48.768;11.528;2023-12-28T07:23:33;97356.50;;;1.27;78.90
83185;BME280;73080;48.768;11.528;2023-12-28T07:25:58;97347.50;;;1.23;79.99
83185;BME280;73080;48.768;11.528;2023-12-28T07:28:24;97355.66;;;1.34;79.63
83185;BME280;73080;48.768;11.528;2023-12-28T07:30:49;97358.09;;;1.51;79.03
83185;BME280;73080;48.768;11.528;2023-12-28T07:33:14;97351.25;;;1.73;78.29
83185;BME280;73080;48.768;11.528;2023-12-28T07:35:40;97356.91;;;2.06;77.46
83185;BME280;73080;48.768;11.528;2023-12-28T07:38:05;97370.38;;;2.31;76.18
83185;BME280;73080;48.768;11.528;2023-12-28T07:40:34;97361.44;;;2.48;75.63
83185;BME280;73080;48.768;11.528;2023-12-28T07:42:59;97357.66;;;2.87;74.60
83185;BME280;73080;48.768;11.528;2023-12-28T07:45:25;97352.81;;;3.20;73.14
83185;BME280;73080;48.768;11.528;2023-12-28T07:47:50;97366.19;;;3.73;70.66
83185;BME280;73080;48.768;11.528;2023-12-28T07:50:16;97364.53;;;3.93;70.99
83185;BME280;73080;48.768;11.528;2023-12-28T07:52:42;97363.34;;;4.30;69.33
83185;BME280;73080;48.768;11.528;2023-12-28T07:55:08;97363.53;;;4.29;68.19
83185;BME280;73080;48.768;11.528;2023-12-28T07:57:34;97364.31;;;4.71;66.60
83185;BME280;73080;48.768;11.528;2023-12-28T07:59:59;97377.84;;;5.34;64.74
83185;BME280;73080;48.768;11.528;2023-12-28T08:02:25;97365.63;;;5.41;62.92
83185;BME280;73080;48.768;11.528;2023-12-28T08:04:50;97363.03;;;5.81;61.64
83185;BME280;73080;48.768;11.528;2023-12-28T08:07:15;97374.25;;;5.81;62.75
83185;BME280;73080;48.768;11.528;2023-12-28T08:09:41;97384.03;;;5.19;65.42
83185;BME280;73080;48.768;11.528;2023-12-28T08:12:12;97377.22;;;5.12;67.19
83185;BME280;73080;48.768;11.528;2023-12-28T08:14:37;97393.88;;;5.31;66.96
83185;BME280;73080;48.768;11.528;2023-12-28T08:17:03;97388.69;;;5.70;64.47
83185;BME280;73080;48.768;11.528;2023-12-28T08:19:28;97394.22;;;5.01;67.73
83185;BME280;73080;48.768;11.528;2023-12-28T08:21:53;97392.28;;;5.30;67.80
83185;BME280;73080;48.768;11.528;2023-12-28T08:24:22;97395.50;;;5.45;66.11
83185;BME280;73080;48.768;11.528;2023-12-28T08:26:47;97392.81;;;4.51;69.91
83185;BME280;73080;48.768;11.528;2023-12-28T08:29:12;97382.56;;;4.84;68.96
83185;BME280;73080;48.768;11.528;2023-12-28T08:31:38;97382.84;;;4.54;69.66
83185;BME280;73080;48.768;11.528;2023-12-28T08:34:03;97390.00;;;4.04;72.46
83185;BME280;73080;48.768;11.528;2023-12-28T08:36:29;97391.03;;;4.45;72.86
83185;BME280;73080;48.768;11.528;2023-12-28T08:38:54;97388.44;;;4.58;70.82
83185;BME280;73080;48.768;11.528;2023-12-28T08:43:46;97387.16;;;4.34;72.09
83185;BME280;73080;48.768;11.528;2023-12-28T08:46:11;97384.19;;;4.37;71.45
83185;BME280;73080;48.768;11.528;2023-12-28T08:48:37;97379.56;;;3.98;73.21
83185;BME280;73080;48.768;11.528;2023-12-28T08:51:02;97386.47;;;3.84;72.91
83185;BME280;73080;48.768;11.528;2023-12-28T08:53:31;97391.94;;;3.96;72.79
83185;BME280;73080;48.768;11.528;2023-12-28T08:55:56;97385.41;;;3.50;74.94
83185;BME280;73080;48.768;11.528;2023-12-28T08:58:22;97383.72;;;3.92;73.76
83185;BME280;73080;48.768;11.528;2023-12-28T09:00:47;97391.34;;;3.72;74.54
83185;BME280;73080;48.768;11.528;2023-12-28T09:03:16;97399.38;;;4.05;74.39
83185;BME280;73080;48.768;11.528;2023-12-28T09:05:41;97404.41;;;3.79;75.01
83185;BME280;73080;48.768;11.528;2023-12-28T09:08:07;97407.59;;;4.44;73.23
83185;BME280;73080;48.768;11.528;2023-12-28T09:10:35;97406.97;;;4.83;72.36
83185;BME280;73080;48.768;11.528;2023-12-28T09:13:03;97408.19;;;4.87;72.58
83185;BME280;73080;48.768;11.528;2023-12-28T09:15:29;97412.88;;;4.63;72.84
83185;BME280;73080;48.768;11.528;2023-12-28T09:17:56;97418.75;;;4.79;71.40
83185;BME280;73080;48.768;11.528;2023-12-28T09:20:21;97417.69;;;4.60;71.86
83185;BME280;73080;48.768;11.528;2023-12-28T09:22:49;97429.84;;;5.01;71.28
83185;BME280;73080;48.768;11.528;2023-12-28T09:25:15;97424.66;;;5.01;69.96
83185;BME280;73080;48.768;11.528;2023-12-28T09:27:40;97432.44;;;5.07;70.17
83185;BME280;73080;48.768;11.528;2023-12-28T09:30:06;97430.16;;;4.78;72.23
83185;BME280;73080;48.768;11.528;2023-12-28T09:32:34;97425.38;;;4.81;70.34
83185;BME280;73080;48.768;11.528;2023-12-28T09:35:00;97420.31;;;4.66;71.75
83185;BME280;73080;48.768;11.528;2023-12-28T09:37:25;97413.13;;;4.68;70.49
83185;BME280;73080;48.768;11.528;2023-12-28T09:39:54;97412.34;;;4.75;71.33
83185;BME280;73080;48.768;11.528;2023-12-28T09:42:25;97410.13;;;4.72;70.97
83185;BME280;73080;48.768;11.528;2023-12-28T09:44:51;97413.19;;;4.82;70.64
83185;BME280;73080;48.768;11.528;2023-12-28T09:47:17;97417.09;;;4.64;71.78
83185;BME280;73080;48.768;11.528;2023-12-28T09:49:43;97409.41;;;4.91;69.94
83185;BME280;73080;48.768;11.528;2023-12-28T09:52:08;97415.19;;;4.80;70.44
83185;BME280;73080;48.768;11.528;2023-12-28T09:54:34;97414.03;;;5.02;69.27
83185;BME280;73080;48.768;11.528;2023-12-28T09:57:03;97407.78;;;4.90;70.42
83185;BME280;73080;48.768;11.528;2023-12-28T09:59:32;97415.75;;;4.75;71.13
83185;BME280;73080;48.768;11.528;2023-12-28T10:02:00;97403.81;;;5.07;71.11
83185;BME280;73080;48.768;11.528;2023-12-28T10:04:27;97401.59;;;4.91;72.67
83185;BME280;73080;48.768;11.528;2023-12-28T10:06:53;97398.16;;;4.84;71.42
83185;BME280;73080;48.768;11.528;2023-12-28T10:09:18;97407.09;;;4.61;72.76
83185;BME280;73080;48.768;11.528;2023-12-28T10:11:43;97416.09;;;4.59;72.35
83185;BME280;73080;48.768;11.528;2023-12-28T10:14:12;97403.00;;;4.39;73.32
83185;BME280;73080;48.768;11.528;2023-12-28T10:16:40;97400.03;;;4.49;71.88
83185;BME280;73080;48.768;11.528;2023-12-28T10:19:06;97392.53;;;4.74;71.29
83185;BME280;73080;48.768;11.528;2023-12-28T10:21:31;97383.75;;;4.81;68.41
83185;BME280;73080;48.768;11.528;2023-12-28T10:23:57;97381.22;;;4.47;69.29
83185;BME280;73080;48.768;11.528;2023-12-28T10:26:23;97378.75;;;4.32;70.89
83185;BME280;73080;48.768;11.528;2023-12-28T10:28:59;97379.69;;;4.59;68.73
83185;BME280;73080;48.768;11.528;2023-12-28T10:31:27;97369.69;;;4.62;68.50
83185;BME280;73080;48.768;11.528;2023-12-28T10:33:52;97361.50;;;4.65;67.92
83185;BME280;73080;48.768;11.528;2023-12-28T10:36:19;97371.03;;;4.45;68.45
83185;BME280;73080;48.768;11.528;2023-12-28T10:38:47;97363.13;;;4.73;67.90
83185;BME280;73080;48.768;11.528;2023-12-28T10:41:15;97363.34;;;4.85;67.53
83185;BME280;73080;48.768;11.528;2023-12-28T10:43:53;97364.59;;;5.02;66.74
83185;BME280;73080;48.768;11.528;2023-12-28T10:46:27;97350.44;;;5.38;64.55
83185;BME280;73080;48.768;11.528;2023-12-28T10:49:00;97352.63;;;5.47;63.71
83185;BME280;73080;48.768;11.528;2023-12-28T10:51:27;97356.22;;;5.66;63.16
83185;BME280;73080;48.768;11.528;2023-12-28T10:56:47;97343.22;;;5.93;68.15
83185;BME280;73080;48.768;11.528;2023-12-28T10:59:37;97335.97;;;5.88;66.87
83185;BME280;73080;48.768;11.528;2023-12-28T11:02:05;97343.59;;;5.76;64.85
83185;BME280;73080;48.768;11.528;2023-12-28T11:04:44;97333.81;;;5.52;65.92
83185;BME280;73080;48.768;11.528;2023-12-28T11:07:13;97329.16;;;5.21;67.32
83185;BME280;73080;48.768;11.528;2023-12-28T11:09:41;97326.16;;;4.97;65.58
83185;BME280;73080;48.768;11.528;2023-12-28T11:12:07;97327.31;;;4.82;68.47
83185;BME280;73080;48.768;11.528;2023-12-28T11:14:34;97326.31;;;4.76;68.06
83185;BME280;73080;48.768;11.528;2023-12-28T11:17:00;97316.56;;;5.05;66.83
83185;BME280;73080;48.768;11.528;2023-12-28T11:19:25;97307.97;;;5.17;67.43
83185;BME280;73080;48.768;11.528;2023-12-28T11:21:52;97301.75;;;5.25;65.73
83185;BME280;73080;48.768;11.528;2023-12-28T11:24:18;97298.34;;;5.44;64.25
83185;BME280;73080;48.768;11.528;2023-12-28T11:26:44;97304.38;;;5.45;64.70
83185;BME280;73080;48.768;11.528;2023-12-28T11:29:18;97314.97;;;5.50;65.12
83185;BME280;73080;48.768;11.528;2023-12-28T11:31:51;97322.38;;;5.60;65.39
83185;BME280;73080;48.768;11.528;2023-12-28T11:34:17;97316.16;;;5.61;65.96
83185;BME280;73080;48.768;11.528;2023-12-28T11:36:49;97321.97;;;5.49;66.96
83185;BME280;73080;48.768;11.528;2023-12-28T11:39:29;97325.56;;;5.42;67.71
83185;BME280;73080;48.768;11.528;2023-12-28T11:41:59;97324.19;;;5.33;68.46
83185;BME280;73080;48.768;11.528;2023-12-28T11:44:28;97321.97;;;5.49;68.46
83185;BME280;73080;48.768;11.528;2023-12-28T11:46:54;97314.34;;;5.61;68.16
83185;BME280;73080;48.768;11.528;2023-12-28T11:49:25;97314.34;;;5.74;67.29
83185;BME280;73080;48.768;11.528;2023-12-28T11:51:55;97315.56;;;5.78;68.92
83185;BME280;73080;48.768;11.528;2023-12-28T11:54:21;97323.97;;;5.94;68.38
83185;BME280;73080;48.768;11.528;2023-12-28T11:56:46;97317.16;;;5.79;69.56
83185;BME280;73080;48.768;11.528;2023-12-28T11:59:12;97314.53;;;5.93;70.15
83185;BME280;73080;48.768;11.528;2023-12-28T12:01:37;97311.31;;;5.84;69.46
83185;BME280;73080;48.768;11.528;2023-12-28T12:04:03;97308.53;;;5.66;68.56
83185;BME280;73080;48.768;11.528;2023-12-28T12:06:29;97303.50;;;5.77;67.93
83185;BME280;73080;48.768;11.528;2023-12-28T12:08:54;97307.31;;;5.82;65.40
83185;BME280;73080;48.768;11.528;2023-12-28T12:11:19;97312.50;;;5.88;65.43
83185;BME280;73080;48.768;11.528;2023-12-28T12:13:45;97305.69;;;6.00;65.61
83185;BME280;73080;48.768;11.528;2023-12-28T12:16:10;97310.31;;;5.85;63.74
83185;BME280;73080;48.768;11.528;2023-12-28T12:18:35;97308.53;;;5.92;63.72
83185;BME280;73080;48.768;11.528;2023-12-28T12:21:02;97311.94;;;5.86;63.65
83185;BME280;73080;48.768;11.528;2023-12-28T12:23:30;97303.31;;;5.92;63.44
83185;BME280;73080;48.768;11.528;2023-12-28T12:25:55;97299.06;;;5.85;63.39
83185;BME280;73080;48.768;11.528;2023-12-28T12:28:21;97292.84;;;5.99;63.67
83185;BME280;73080;48.768;11.528;2023-12-28T12:30:54;97297.47;;;5.97;64.81
83185;BME280;73080;48.768;11.528;2023-12-28T12:33:20;97296.81;;;6.21;63.90
83185;BME280;73080;48.768;11.528;2023-12-28T12:35:46;97296.97;;;6.26;63.82
83185;BME280;73080;48.768;11.528;2023-12-28T12:38:14;97285.34;;;6.29;64.49
83185;BME280;73080;48.768;11.528;2023-12-28T12:40:40;97292.72;;;6.39;63.45
83185;BME280;73080;48.768;11.528;2023-12-28T12:43:06;97285.97;;;6.24;63.99
83185;BME280;73080;48.768;11.528;2023-12-28T12:45:32;97281.72;;;6.37;64.50
83185;BME280;73080;48.768;11.528;2023-12-28T12:47:57;97273.69;;;6.31;64.49
83185;BME280;73080;48.768;11.528;2023-12-28T12:50:23;97280.69;;;6.38;64.83
83185;BME280;73080;48.768;11.528;2023-12-28T12:52:48;97287.53;;;6.32;63.81
83185;BME280;73080;48.768;11.528;2023-12-28T12:55:14;97276.00;;;6.53;63.86
83185;BME280;73080;48.768;11.528;2023-12-28T12:57:42;97268.50;;;6.70;63.05
83185;BME280;73080;48.768;11.528;2023-12-28T13:00:09;97262.59;;;6.81;62.37
83185;BME280;73080;48.768;11.528;2023-12-28T13:02:35;97266.97;;;6.87;62.85
83185;BME280;73080;48.768;11.528;2023-12-28T13:05:00;97263.72;;;6.92;63.06